createdAt,value
2018-09-18T00:00:24.828Z,1008.83
2018-09-18T00:01:24.781Z,1008.83
2018-09-18T00:02:24.861Z,1008.83
2018-09-18T00:03:24.694Z,1008.79
2018-09-18T00:04:24.979Z,1008.81
2018-09-18T00:05:24.662Z,1008.84
2018-09-18T00:06:24.646Z,1008.84
2018-09-18T00:07:24.679Z,1008.86
2018-09-18T00:08:24.646Z,1008.89
2018-09-18T00:09:24.601Z,1008.87
2018-09-18T00:10:24.632Z,1008.88
2018-09-18T00:11:24.564Z,1008.90
2018-09-18T00:12:24.543Z,1008.86
2018-09-18T00:13:24.528Z,1008.84
2018-09-18T00:14:24.513Z,1008.87
2018-09-18T00:15:24.687Z,1008.84
2018-09-18T00:17:24.613Z,1008.78
2018-09-18T00:21:24.756Z,1008.79
2018-09-18T00:22:24.380Z,1008.75
2018-09-18T00:23:24.411Z,1008.76
2018-09-18T00:24:24.417Z,1008.78
2018-09-18T00:25:25.965Z,1008.75
2018-09-18T00:26:24.316Z,1008.77
2018-09-18T00:27:24.293Z,1008.77
2018-09-18T00:28:24.275Z,1008.76
2018-09-18T00:29:24.309Z,1008.72
2018-09-18T00:30:24.244Z,1008.75
2018-09-18T00:31:24.595Z,1008.74
2018-09-18T00:32:24.285Z,1008.74
2018-09-18T00:33:24.284Z,1008.72
2018-09-18T00:34:24.249Z,1008.77
2018-09-18T00:35:24.291Z,1008.73
2018-09-18T00:36:24.214Z,1008.70
2018-09-18T00:37:24.130Z,1008.73
2018-09-18T00:39:24.140Z,1008.69
2018-09-18T00:40:24.074Z,1008.67
2018-09-18T00:41:24.157Z,1008.72
2018-09-18T00:42:24.039Z,1008.74
2018-09-18T00:43:24.037Z,1008.72
2018-09-18T00:44:24.008Z,1008.69
2018-09-18T00:46:23.973Z,1008.68
2018-09-18T00:47:24.079Z,1008.70
2018-09-18T00:48:23.988Z,1008.66
2018-09-18T00:49:23.944Z,1008.67
2018-09-18T00:50:23.905Z,1008.64
2018-09-18T00:51:23.890Z,1008.59
2018-09-18T00:52:23.946Z,1008.61
2018-09-18T00:53:23.907Z,1008.61
2018-09-18T00:54:23.853Z,1008.60
2018-09-18T00:55:23.922Z,1008.56
2018-09-18T00:56:23.802Z,1008.58
2018-09-18T00:57:23.786Z,1008.56
2018-09-18T00:58:23.771Z,1008.56
2018-09-18T00:59:23.903Z,1008.58
2018-09-18T01:01:23.770Z,1008.55
2018-09-18T01:02:23.706Z,1008.54
2018-09-18T01:03:23.685Z,1008.52
2018-09-18T01:04:24.042Z,1008.49
2018-09-18T01:05:23.829Z,1008.51
2018-09-18T01:06:23.706Z,1008.48
2018-09-18T01:07:23.616Z,1008.49
2018-09-18T01:08:23.600Z,1008.52
2018-09-18T01:09:23.654Z,1008.56
2018-09-18T01:10:23.638Z,1008.53
2018-09-18T01:11:23.685Z,1008.56
2018-09-18T01:12:23.531Z,1008.51
2018-09-18T01:13:23.714Z,1008.52
2018-09-18T01:14:23.571Z,1008.52
2018-09-18T01:15:23.557Z,1008.48
2018-09-18T01:16:23.462Z,1008.52
2018-09-18T01:17:23.572Z,1008.49
2018-09-18T01:18:23.504Z,1008.50
2018-09-18T01:19:23.480Z,1008.48
2018-09-18T01:20:23.394Z,1008.49
2018-09-18T01:21:23.426Z,1008.45
2018-09-18T01:22:23.364Z,1008.43
2018-09-18T01:23:23.395Z,1008.42
2018-09-18T01:24:23.331Z,1008.44
2018-09-18T01:25:23.327Z,1008.43
2018-09-18T01:26:23.294Z,1008.41
2018-09-18T01:27:23.627Z,1008.41
2018-09-18T01:28:23.261Z,1008.44
2018-09-18T01:29:23.398Z,1008.41
2018-09-18T01:30:23.304Z,1008.38
2018-09-18T01:31:23.208Z,1008.41
2018-09-18T01:32:23.267Z,1008.38
2018-09-18T01:33:23.247Z,1008.40
2018-09-18T01:34:23.157Z,1008.43
2018-09-18T01:35:23.191Z,1008.39
2018-09-18T01:36:23.196Z,1008.35
2018-09-18T01:37:23.176Z,1008.38
2018-09-18T01:38:23.161Z,1008.38
2018-09-18T01:39:23.072Z,1008.38
2018-09-18T01:40:23.127Z,1008.42
2018-09-18T01:41:23.089Z,1008.39
2018-09-18T01:42:23.097Z,1008.42
2018-09-18T01:43:23.010Z,1008.35
2018-09-18T01:44:23.061Z,1008.37
2018-09-18T01:45:23.120Z,1008.33
2018-09-18T01:46:22.960Z,1008.31
2018-09-18T01:47:23.057Z,1008.32
2018-09-18T01:48:22.918Z,1008.33
2018-09-18T01:49:22.901Z,1008.32
2018-09-18T01:50:24.155Z,1008.30
2018-09-18T01:51:22.865Z,1008.32
2018-09-18T01:52:22.921Z,1008.26
2018-09-18T01:53:22.953Z,1008.29
2018-09-18T01:54:22.815Z,1008.28
2018-09-18T01:55:22.798Z,1008.30
2018-09-18T01:56:22.853Z,1008.28
2018-09-18T01:57:22.838Z,1008.24
2018-09-18T01:58:22.821Z,1008.24
2018-09-18T01:59:22.783Z,1008.25
2018-09-18T02:01:22.696Z,1008.25
2018-09-18T02:02:22.730Z,1008.22
2018-09-18T02:03:22.735Z,1008.20
2018-09-18T02:04:22.922Z,1008.19
2018-09-18T02:05:22.751Z,1008.19
2018-09-18T02:06:22.696Z,1008.17
2018-09-18T02:07:22.593Z,1008.18
2018-09-18T02:08:22.577Z,1008.16
2018-09-18T02:09:22.621Z,1008.15
2018-09-18T02:10:22.875Z,1008.15
2018-09-18T02:11:22.650Z,1008.17
2018-09-18T02:12:22.506Z,1008.12
2018-09-18T02:13:22.496Z,1008.11
2018-09-18T02:14:22.547Z,1008.14
2018-09-18T02:15:22.651Z,1008.13
2018-09-18T02:16:22.536Z,1008.11
2018-09-18T02:17:22.660Z,1008.08
2018-09-18T02:18:22.538Z,1008.11
2018-09-18T02:20:22.682Z,1008.08
2018-09-18T02:21:22.417Z,1008.10
2018-09-18T02:22:22.337Z,1008.08
2018-09-18T02:23:22.384Z,1008.08
2018-09-18T02:24:22.358Z,1008.07
2018-09-18T02:25:22.284Z,1008.09
2018-09-18T02:26:22.341Z,1008.07
2018-09-18T02:27:22.320Z,1008.06
2018-09-18T02:28:22.403Z,1008.09
2018-09-18T02:29:22.314Z,1008.05
2018-09-18T02:30:22.273Z,1008.03
2018-09-18T02:31:22.259Z,1008.02
2018-09-18T02:32:22.248Z,1008.00
2018-09-18T02:33:22.144Z,1007.99
2018-09-18T02:34:22.128Z,1008.00
2018-09-18T02:35:22.160Z,1008.00
2018-09-18T02:36:22.102Z,1007.98
2018-09-18T02:37:22.076Z,1007.99
2018-09-18T02:38:22.057Z,1007.99
2018-09-18T02:39:22.042Z,1007.98
2018-09-18T02:40:22.028Z,1007.97
2018-09-18T02:41:22.129Z,1007.97
2018-09-18T02:42:22.164Z,1007.93
2018-09-18T02:43:21.974Z,1007.94
2018-09-18T02:44:22.025Z,1007.91
2018-09-18T02:45:22.009Z,1007.93
2018-09-18T02:46:22.003Z,1007.92
2018-09-18T02:47:21.953Z,1007.97
2018-09-18T02:48:21.884Z,1007.94
2018-09-18T02:49:21.867Z,1007.92
2018-09-18T02:50:21.851Z,1007.91
2018-09-18T02:51:21.985Z,1007.88
2018-09-18T02:52:21.868Z,1007.88
2018-09-18T02:53:22.151Z,1007.88
2018-09-18T02:54:21.783Z,1007.88
2018-09-18T02:55:21.821Z,1007.86
2018-09-18T02:57:22.078Z,1007.90
2018-09-18T02:58:21.738Z,1007.86
2018-09-18T02:59:21.845Z,1007.89
2018-09-18T03:00:21.684Z,1007.89
2018-09-18T03:01:21.670Z,1007.87
2018-09-18T03:02:21.708Z,1007.87
2018-09-18T03:03:21.643Z,1007.85
2018-09-18T03:04:21.666Z,1007.81
2018-09-18T03:05:21.774Z,1007.81
2018-09-18T03:06:21.756Z,1007.81
2018-09-18T03:07:21.620Z,1007.80
2018-09-18T03:08:21.599Z,1007.82
2018-09-18T03:09:21.530Z,1007.77
2018-09-18T03:10:21.516Z,1007.83
2018-09-18T03:11:21.701Z,1007.82
2018-09-18T03:12:21.554Z,1007.79
2018-09-18T03:13:21.540Z,1007.79
2018-09-18T03:14:21.787Z,1007.81
2018-09-18T03:15:21.629Z,1007.83
2018-09-18T03:16:21.403Z,1007.81
2018-09-18T03:17:21.552Z,1007.78
2018-09-18T03:18:21.376Z,1007.83
2018-09-18T03:19:21.434Z,1007.78
2018-09-18T03:20:21.426Z,1007.83
2018-09-18T03:22:21.681Z,1007.84
2018-09-18T03:23:21.409Z,1007.83
2018-09-18T03:30:21.642Z,1007.79
2018-09-18T03:31:21.315Z,1007.81
2018-09-18T03:33:21.160Z,1007.75
2018-09-18T03:34:21.480Z,1007.71
2018-09-18T03:35:21.186Z,1007.71
2018-09-18T03:36:21.115Z,1007.74
2018-09-18T03:37:21.043Z,1007.70
2018-09-18T03:38:21.028Z,1007.70
2018-09-18T03:39:21.023Z,1007.67
2018-09-18T03:40:20.986Z,1007.68
2018-09-18T03:41:20.975Z,1007.65
2018-09-18T03:42:21.001Z,1007.63
2018-09-18T03:43:20.998Z,1007.60
2018-09-18T03:44:20.930Z,1007.58
2018-09-18T03:45:21.066Z,1007.55
2018-09-18T03:46:21.041Z,1007.55
2018-09-18T03:47:20.961Z,1007.57
2018-09-18T03:48:21.185Z,1007.58
2018-09-18T03:49:20.889Z,1007.56
2018-09-18T03:50:20.873Z,1007.55
2018-09-18T03:51:20.831Z,1007.57
2018-09-18T03:52:20.826Z,1007.55
2018-09-18T03:53:20.966Z,1007.56
2018-09-18T03:54:20.945Z,1007.52
2018-09-18T03:55:20.945Z,1007.53
2018-09-18T03:56:20.866Z,1007.52
2018-09-18T03:57:20.750Z,1007.53
2018-09-18T03:58:20.725Z,1007.53
2018-09-18T03:59:20.675Z,1007.52
2018-09-18T04:00:20.692Z,1007.54
2018-09-18T04:01:20.687Z,1007.56
2018-09-18T04:02:20.735Z,1007.53
2018-09-18T04:03:20.645Z,1007.55
2018-09-18T04:04:20.640Z,1007.55
2018-09-18T04:07:21.353Z,1007.53
2018-09-18T04:08:20.565Z,1007.53
2018-09-18T04:09:20.554Z,1007.52
2018-09-18T04:10:20.530Z,1007.51
2018-09-18T04:11:20.715Z,1007.48
2018-09-18T04:12:20.443Z,1007.50
2018-09-18T04:13:20.475Z,1007.50
2018-09-18T04:14:20.649Z,1007.50
2018-09-18T04:15:20.550Z,1007.47
2018-09-18T04:16:20.475Z,1007.46
2018-09-18T04:17:20.467Z,1007.46
2018-09-18T04:18:20.631Z,1007.45
2018-09-18T04:19:20.516Z,1007.41
2018-09-18T04:20:20.540Z,1007.44
2018-09-18T04:21:20.430Z,1007.46
2018-09-18T04:22:20.591Z,1007.43
2018-09-18T04:23:20.370Z,1007.44
2018-09-18T04:24:20.908Z,1007.45
2018-09-18T04:25:20.606Z,1007.45
2018-09-18T04:26:20.366Z,1007.42
2018-09-18T04:27:20.399Z,1007.40
2018-09-18T04:28:20.225Z,1007.40
2018-09-18T04:29:20.367Z,1007.38
2018-09-18T04:30:20.285Z,1007.39
2018-09-18T04:31:20.250Z,1007.39
2018-09-18T04:32:20.151Z,1007.39
2018-09-18T04:33:20.086Z,1007.40
2018-09-18T04:34:20.156Z,1007.37
2018-09-18T04:35:20.043Z,1007.38
2018-09-18T04:36:20.328Z,1007.38
2018-09-18T04:37:20.182Z,1007.41
2018-09-18T04:38:21.117Z,1007.36
2018-09-18T04:40:20.087Z,1007.36
2018-09-18T04:41:20.038Z,1007.30
2018-09-18T04:42:20.120Z,1007.33
2018-09-18T04:43:20.056Z,1007.34
2018-09-18T04:44:20.281Z,1007.33
2018-09-18T04:45:19.917Z,1007.33
2018-09-18T04:46:19.906Z,1007.32
2018-09-18T04:47:19.833Z,1007.30
2018-09-18T04:48:19.920Z,1007.34
2018-09-18T04:49:19.866Z,1007.31
2018-09-18T04:50:19.798Z,1007.32
2018-09-18T04:51:19.799Z,1007.34
2018-09-18T04:52:19.823Z,1007.34
2018-09-18T04:53:19.748Z,1007.35
2018-09-18T04:54:20.013Z,1007.35
2018-09-18T04:56:19.679Z,1007.35
2018-09-18T04:57:20.058Z,1007.33
2018-09-18T04:59:19.845Z,1007.37
2018-09-18T05:00:20.260Z,1007.36
2018-09-18T05:01:20.141Z,1007.37
2018-09-18T05:02:19.834Z,1007.35
2018-09-18T05:03:19.931Z,1007.34
2018-09-18T05:04:19.786Z,1007.32
2018-09-18T05:05:19.602Z,1007.31
2018-09-18T05:07:19.861Z,1007.32
2018-09-18T05:08:19.529Z,1007.34
2018-09-18T05:09:19.696Z,1007.34
2018-09-18T05:10:19.617Z,1007.34
2018-09-18T05:11:19.891Z,1007.37
2018-09-18T05:13:19.730Z,1007.32
2018-09-18T05:14:19.840Z,1007.35
2018-09-18T05:15:19.437Z,1007.32
2018-09-18T05:16:19.453Z,1007.34
2018-09-18T05:17:19.380Z,1007.31
2018-09-18T05:18:19.366Z,1007.31
2018-09-18T05:19:19.421Z,1007.30
2018-09-18T05:20:19.610Z,1007.32
2018-09-18T05:21:19.247Z,1007.28
2018-09-18T05:22:19.263Z,1007.30
2018-09-18T05:23:19.281Z,1007.26
2018-09-18T05:24:19.247Z,1007.33
2018-09-18T05:25:19.268Z,1007.32
2018-09-18T05:26:19.638Z,1007.33
2018-09-18T05:27:19.221Z,1007.30
2018-09-18T05:28:19.182Z,1007.31
2018-09-18T05:29:19.157Z,1007.32
2018-09-18T05:30:19.142Z,1007.32
2018-09-18T05:31:20.697Z,1007.33
2018-09-18T05:32:19.396Z,1007.34
2018-09-18T05:33:19.408Z,1007.36
2018-09-18T05:34:19.769Z,1007.35
2018-09-18T05:35:18.995Z,1007.31
2018-09-18T05:36:19.042Z,1007.33
2018-09-18T05:37:19.492Z,1007.30
2018-09-18T05:38:19.395Z,1007.25
2018-09-18T05:39:18.967Z,1007.27
2018-09-18T05:40:19.161Z,1007.29
2018-09-18T05:42:19.231Z,1007.27
2018-09-18T05:44:19.509Z,1007.26
2018-09-18T05:45:19.240Z,1007.25
2018-09-18T05:46:18.827Z,1007.27
2018-09-18T05:50:19.094Z,1007.26
2018-09-18T05:51:18.821Z,1007.26
2018-09-18T05:52:19.678Z,1007.30
2018-09-18T05:53:18.752Z,1007.28
2018-09-18T05:54:18.684Z,1007.32
2018-09-18T05:55:18.791Z,1007.31
2018-09-18T05:56:18.991Z,1007.30
2018-09-18T05:57:18.764Z,1007.30
2018-09-18T05:58:18.652Z,1007.31
2018-09-18T05:59:18.753Z,1007.31
2018-09-18T06:00:18.714Z,1007.31
2018-09-18T06:01:18.721Z,1007.27
2018-09-18T06:02:19.088Z,1007.27
2018-09-18T06:03:18.587Z,1007.25
2018-09-18T06:04:18.551Z,1007.24
2018-09-18T06:05:19.075Z,1007.20
2018-09-18T06:06:18.525Z,1007.19
2018-09-18T06:07:18.925Z,1007.18
2018-09-18T06:08:18.876Z,1007.19
2018-09-18T06:09:19.199Z,1007.23
2018-09-18T06:10:20.513Z,1007.24
2018-09-18T06:11:18.909Z,1007.25
2018-09-18T06:12:18.436Z,1007.26
2018-09-18T06:13:18.454Z,1007.27
2018-09-18T06:17:18.333Z,1007.31
2018-09-18T06:18:18.279Z,1007.29
2018-09-18T06:20:18.335Z,1007.27
2018-09-18T06:22:18.584Z,1007.22
2018-09-18T06:23:18.195Z,1007.21
2018-09-18T06:24:18.181Z,1007.19
2018-09-18T06:25:18.186Z,1007.25
2018-09-18T06:26:18.309Z,1007.22
2018-09-18T06:27:18.134Z,1007.20
2018-09-18T06:28:18.467Z,1007.18
2018-09-18T06:30:18.240Z,1007.16
2018-09-18T06:31:18.126Z,1007.18
2018-09-18T06:32:18.357Z,1007.17
2018-09-18T06:33:18.039Z,1007.16
2018-09-18T06:34:18.383Z,1007.18
2018-09-18T06:35:18.062Z,1007.18
2018-09-18T06:36:18.052Z,1007.21
2018-09-18T06:37:17.988Z,1007.18
2018-09-18T06:38:18.028Z,1007.21
2018-09-18T06:39:18.049Z,1007.16
2018-09-18T06:40:18.287Z,1007.22
2018-09-18T06:41:17.981Z,1007.22
2018-09-18T06:42:18.055Z,1007.20
2018-09-18T06:43:17.985Z,1007.20
2018-09-18T06:44:17.971Z,1007.20
2018-09-18T06:45:18.017Z,1007.22
2018-09-18T06:47:17.840Z,1007.20
2018-09-18T06:48:17.844Z,1007.17
2018-09-18T06:49:17.864Z,1007.20
2018-09-18T06:50:18.048Z,1007.20
2018-09-18T06:51:17.833Z,1007.20
2018-09-18T06:52:18.118Z,1007.24
2018-09-18T06:53:17.750Z,1007.22
2018-09-18T06:54:17.823Z,1007.20
2018-09-18T06:55:17.778Z,1007.24
2018-09-18T06:56:17.895Z,1007.23
2018-09-18T06:57:17.744Z,1007.26
2018-09-18T06:58:18.163Z,1007.20
2018-09-18T06:59:17.775Z,1007.24
2018-09-18T07:00:17.759Z,1007.22
2018-09-18T07:01:17.691Z,1007.24
2018-09-18T07:02:17.821Z,1007.20
2018-09-18T07:04:17.953Z,1007.28
2018-09-18T07:05:17.597Z,1007.22
2018-09-18T07:06:17.575Z,1007.22
2018-09-18T07:07:17.590Z,1007.21
2018-09-18T07:08:17.843Z,1007.26
2018-09-18T07:09:17.534Z,1007.29
2018-09-18T07:10:17.888Z,1007.29
2018-09-18T07:11:17.498Z,1007.37
2018-09-18T07:13:17.473Z,1007.35
2018-09-18T07:14:17.513Z,1007.34
2018-09-18T07:15:17.461Z,1007.30
2018-09-18T07:16:17.789Z,1007.27
2018-09-18T07:17:17.430Z,1007.28
2018-09-18T07:18:17.415Z,1007.31
2018-09-18T07:19:17.408Z,1007.32
2018-09-18T07:20:17.439Z,1007.33
2018-09-18T07:21:17.383Z,1007.25
2018-09-18T07:23:17.398Z,1007.26
2018-09-18T07:24:18.229Z,1007.25
2018-09-18T07:25:17.328Z,1007.27
2018-09-18T07:26:17.376Z,1007.28
2018-09-18T07:27:17.373Z,1007.28
2018-09-18T07:28:17.639Z,1007.33
2018-09-18T07:29:17.302Z,1007.30
2018-09-18T07:30:17.342Z,1007.31
2018-09-18T07:31:17.332Z,1007.31
2018-09-18T07:32:17.335Z,1007.26
2018-09-18T07:34:17.696Z,1007.28
2018-09-18T07:35:17.323Z,1007.35
2018-09-18T07:36:17.250Z,1007.28
2018-09-18T07:37:17.231Z,1007.27
2018-09-18T07:38:17.310Z,1007.34
2018-09-18T07:39:17.233Z,1007.27
2018-09-18T07:40:18.406Z,1007.32
2018-09-18T07:41:17.180Z,1007.28
2018-09-18T07:42:18.262Z,1007.26
2018-09-18T07:43:17.191Z,1007.31
2018-09-18T07:44:17.541Z,1007.33
2018-09-18T07:45:17.440Z,1007.30
2018-09-18T07:46:17.415Z,1007.27
2018-09-18T07:47:17.241Z,1007.29
2018-09-18T07:48:17.132Z,1007.30
2018-09-18T07:49:17.176Z,1007.30
2018-09-18T07:50:17.703Z,1007.30
2018-09-18T07:51:17.088Z,1007.35
2018-09-18T07:52:17.413Z,1007.35
2018-09-18T07:53:17.041Z,1007.34
2018-09-18T07:54:16.970Z,1007.35
2018-09-18T07:55:17.086Z,1007.33
2018-09-18T07:56:17.108Z,1007.36
2018-09-18T07:57:16.979Z,1007.29
2018-09-18T07:58:17.283Z,1007.28
2018-09-18T07:59:17.034Z,1007.30
2018-09-18T08:01:16.933Z,1007.27
2018-09-18T08:02:17.088Z,1007.23
2018-09-18T08:03:17.021Z,1007.28
2018-09-18T08:04:17.241Z,1007.31
2018-09-18T08:05:16.856Z,1007.27
2018-09-18T08:06:16.910Z,1007.22
2018-09-18T08:07:16.885Z,1007.28
2018-09-18T08:08:16.921Z,1007.22
2018-09-18T08:10:17.213Z,1007.22
2018-09-18T08:11:16.848Z,1007.26
2018-09-18T08:12:16.781Z,1007.24
2018-09-18T08:13:16.824Z,1007.23
2018-09-18T08:14:16.988Z,1007.23
2018-09-18T08:15:16.855Z,1007.18
2018-09-18T08:16:17.130Z,1007.26
2018-09-18T08:17:16.789Z,1007.21
2018-09-18T08:18:16.835Z,1007.17
2018-09-18T08:19:16.847Z,1007.18
2018-09-18T08:20:16.755Z,1007.25
2018-09-18T08:21:16.913Z,1007.23
2018-09-18T08:22:17.185Z,1007.26
2018-09-18T08:23:16.981Z,1007.22
2018-09-18T08:24:16.658Z,1007.31
2018-09-18T08:25:16.794Z,1007.21
2018-09-18T08:26:16.818Z,1007.23
2018-09-18T08:27:16.672Z,1007.22
2018-09-18T08:28:16.969Z,1007.21
2018-09-18T08:29:16.716Z,1007.19
2018-09-18T08:30:16.601Z,1007.22
2018-09-18T08:31:16.670Z,1007.24
2018-09-18T08:32:16.969Z,1007.23
2018-09-18T08:33:16.579Z,1007.21
2018-09-18T08:34:16.903Z,1007.25
2018-09-18T08:35:16.689Z,1007.23
2018-09-18T08:36:16.626Z,1007.24
2018-09-18T08:37:16.628Z,1007.23
2018-09-18T08:38:16.570Z,1007.20
2018-09-18T08:39:16.531Z,1007.18
2018-09-18T08:40:17.769Z,1007.17
2018-09-18T08:41:16.513Z,1007.18
2018-09-18T08:42:16.638Z,1007.21
2018-09-18T08:43:16.842Z,1007.22
2018-09-18T08:44:16.667Z,1007.21
2018-09-18T08:45:16.507Z,1007.18
2018-09-18T08:46:16.887Z,1007.18
2018-09-18T08:47:16.594Z,1007.20
2018-09-18T08:48:16.574Z,1007.22
2018-09-18T08:49:16.449Z,1007.17
2018-09-18T08:50:16.536Z,1007.22
2018-09-18T08:51:16.456Z,1007.21
2018-09-18T08:52:16.787Z,1007.22
2018-09-18T08:53:16.547Z,1007.23
2018-09-18T08:54:16.927Z,1007.22
2018-09-18T08:55:16.412Z,1007.27
2018-09-18T08:56:16.553Z,1007.25
2018-09-18T08:57:16.902Z,1007.24
2018-09-18T08:58:16.779Z,1007.23
2018-09-18T08:59:16.320Z,1007.23
2018-09-18T09:00:16.304Z,1007.23
2018-09-18T09:01:16.351Z,1007.22
2018-09-18T09:02:17.097Z,1007.25
2018-09-18T09:03:16.593Z,1007.21
2018-09-18T09:04:18.611Z,1007.22
2018-09-18T09:05:16.535Z,1007.21
2018-09-18T09:06:16.387Z,1007.22
2018-09-18T09:07:16.705Z,1007.22
2018-09-18T09:09:16.444Z,1007.28
2018-09-18T09:10:16.654Z,1007.28
2018-09-18T09:11:16.330Z,1007.23
2018-09-18T09:12:16.296Z,1007.20
2018-09-18T09:13:16.360Z,1007.30
2018-09-18T09:18:16.316Z,1007.22
2018-09-18T09:19:16.219Z,1007.19
2018-09-18T09:20:16.364Z,1007.11
2018-09-18T09:21:16.246Z,1007.16
2018-09-18T09:22:16.589Z,1007.36
2018-09-18T09:23:16.252Z,1007.17
2018-09-18T09:25:16.383Z,1007.18
2018-09-18T09:26:16.297Z,1007.18
2018-09-18T09:27:16.186Z,1007.13
2018-09-18T09:28:16.472Z,1007.14
2018-09-18T09:29:16.171Z,1007.18
2018-09-18T09:30:16.237Z,1007.49
2018-09-18T09:31:16.130Z,1007.20
2018-09-18T09:32:16.230Z,1007.18
2018-09-18T09:36:16.130Z,1007.16
2018-09-18T09:37:16.204Z,1007.20
2018-09-18T09:38:16.168Z,1007.23
2018-09-18T09:39:16.661Z,1007.19
2018-09-18T09:40:16.907Z,1007.22
2018-09-18T09:41:16.055Z,1007.20
2018-09-18T09:42:16.249Z,1007.21
2018-09-18T09:43:16.276Z,1007.16
2018-09-18T09:45:16.286Z,1007.11
2018-09-18T09:47:16.617Z,1007.18
2018-09-18T09:48:16.012Z,1007.11
2018-09-18T09:49:16.072Z,1007.12
2018-09-18T09:50:16.323Z,1007.08
2018-09-18T09:51:16.110Z,1007.08
2018-09-18T09:54:16.273Z,1007.04
2018-09-18T09:55:15.979Z,1007.02
2018-09-18T09:57:15.958Z,1007.03
2018-09-18T09:58:16.051Z,1007.05
2018-09-18T09:59:15.994Z,1007.02
2018-09-18T10:00:16.264Z,1006.95
2018-09-18T10:02:16.017Z,1006.97
2018-09-18T10:03:15.940Z,1006.92
2018-09-18T10:04:15.930Z,1006.91
2018-09-18T10:06:16.251Z,1006.96
2018-09-18T10:08:15.916Z,1006.90
2018-09-18T10:09:15.931Z,1006.85
2018-09-18T10:10:15.947Z,1006.83
2018-09-18T10:12:16.320Z,1006.83
2018-09-18T10:13:15.885Z,1006.74
2018-09-18T10:16:15.888Z,1007.30
2018-09-18T10:17:15.844Z,1007.63
2018-09-18T10:18:16.207Z,1006.93
2018-09-18T10:19:15.967Z,1006.72
2018-09-18T10:20:15.964Z,1006.75
2018-09-18T10:21:16.161Z,1007.53
2018-09-18T10:23:15.843Z,1007.48
2018-09-18T10:25:15.946Z,1007.45
2018-09-18T10:27:15.833Z,1007.36
2018-09-18T10:28:15.811Z,1007.27
2018-09-18T10:29:15.790Z,1007.34
2018-09-18T10:30:16.081Z,1007.33
2018-09-18T10:31:15.837Z,1007.28
2018-09-18T10:32:15.837Z,1007.36
2018-09-18T10:34:15.836Z,1007.22
2018-09-18T10:35:15.839Z,1007.20
2018-09-18T10:37:15.867Z,1007.13
2018-09-18T10:39:15.946Z,1007.12
2018-09-18T10:40:15.937Z,1007.08
2018-09-18T10:41:16.136Z,1007.09
2018-09-18T10:43:15.877Z,1007.08
2018-09-18T10:45:15.874Z,1007.04
2018-09-18T10:46:15.864Z,1007.03
2018-09-18T10:47:15.850Z,1007.08
2018-09-18T10:48:16.193Z,1007.02
2018-09-18T10:49:15.866Z,1007.03
2018-09-18T10:50:15.832Z,1007.03
2018-09-18T10:51:15.852Z,1007.00
2018-09-18T10:52:15.969Z,1006.86
2018-09-18T10:53:15.811Z,1006.93
2018-09-18T10:54:16.890Z,1006.98
2018-09-18T10:55:15.853Z,1006.96
2018-09-18T10:56:15.869Z,1006.94
2018-09-18T10:58:15.769Z,1007.05
2018-09-18T10:59:15.807Z,1006.92
2018-09-18T11:00:16.081Z,1006.92
2018-09-18T11:01:15.823Z,1006.91
2018-09-18T11:02:15.989Z,1006.91
2018-09-18T11:03:15.908Z,1006.88
2018-09-18T11:04:15.842Z,1006.89
2018-09-18T11:05:15.829Z,1006.85
2018-09-18T11:06:16.132Z,1006.89
2018-09-18T11:07:15.898Z,1006.88
2018-09-18T11:08:16.046Z,1006.83
2018-09-18T11:09:15.971Z,1006.85
2018-09-18T11:10:17.076Z,1006.84
2018-09-18T11:11:15.853Z,1006.80
2018-09-18T11:13:16.142Z,1006.74
2018-09-18T11:14:15.822Z,1006.81
2018-09-18T11:15:15.905Z,1006.74
2018-09-18T11:16:15.885Z,1006.73
2018-09-18T11:17:15.816Z,1006.71
2018-09-18T11:18:15.913Z,1006.87
2018-09-18T11:19:16.209Z,1006.83
2018-09-18T11:20:15.833Z,1006.79
2018-09-18T11:21:15.978Z,1006.87
2018-09-18T11:22:15.984Z,1006.78
2018-09-18T11:23:15.777Z,1006.79
2018-09-18T11:24:15.832Z,1006.76
2018-09-18T11:25:16.076Z,1006.75
2018-09-18T11:26:15.913Z,1006.73
2018-09-18T11:27:15.810Z,1006.71
2018-09-18T11:28:15.772Z,1006.75
2018-09-18T11:29:16.081Z,1006.71
2018-09-18T11:30:15.787Z,1006.73
2018-09-18T11:31:16.149Z,1006.69
2018-09-18T11:32:15.812Z,1006.64
2018-09-18T11:33:16.169Z,1006.71
2018-09-18T11:34:15.792Z,1006.68
2018-09-18T11:36:15.834Z,1006.54
2018-09-18T11:37:16.137Z,1006.52
2018-09-18T11:38:15.819Z,1006.52
2018-09-18T11:39:16.234Z,1006.51
2018-09-18T11:40:15.780Z,1006.50
2018-09-18T11:41:15.764Z,1006.47
2018-09-18T11:42:15.831Z,1006.44
2018-09-18T11:43:16.145Z,1006.45
2018-09-18T11:44:15.840Z,1006.49
2018-09-18T11:45:15.817Z,1006.41
2018-09-18T11:46:15.819Z,1006.41
2018-09-18T11:47:15.761Z,1006.49
2018-09-18T11:48:15.818Z,1006.51
2018-09-18T11:49:16.117Z,1006.45
2018-09-18T11:51:15.982Z,1006.46
2018-09-18T11:52:15.801Z,1006.46
2018-09-18T11:53:15.790Z,1006.42
2018-09-18T11:54:15.777Z,1006.43
2018-09-18T11:57:15.930Z,1006.47
2018-09-18T11:58:15.846Z,1006.41
2018-09-18T11:59:15.894Z,1006.44
2018-09-18T12:00:15.771Z,1006.36
2018-09-18T12:01:16.708Z,1006.37
2018-09-18T12:02:15.948Z,1006.41
2018-09-18T12:03:16.036Z,1006.28
2018-09-18T12:04:15.887Z,1006.38
2018-09-18T12:05:15.940Z,1006.40
2018-09-18T12:06:15.804Z,1006.28
2018-09-18T12:07:16.168Z,1006.27
2018-09-18T12:08:15.831Z,1006.37
2018-09-18T12:09:16.018Z,1006.41
2018-09-18T12:10:15.830Z,1006.29
2018-09-18T12:11:15.925Z,1006.27
2018-09-18T12:12:15.934Z,1006.20
2018-09-18T12:13:16.092Z,1006.26
2018-09-18T12:15:15.933Z,1006.29
2018-09-18T12:16:15.813Z,1006.19
2018-09-18T12:17:15.842Z,1006.24
2018-09-18T12:18:15.840Z,1006.20
2018-09-18T12:19:16.047Z,1006.20
2018-09-18T12:20:15.998Z,1006.18
2018-09-18T12:21:15.841Z,1006.25
2018-09-18T12:22:15.869Z,1006.20
2018-09-18T12:23:15.849Z,1006.23
2018-09-18T12:25:15.841Z,1006.16
2018-09-18T12:26:15.785Z,1006.14
2018-09-18T12:27:15.953Z,1006.16
2018-09-18T12:28:15.839Z,1006.11
2018-09-18T12:30:16.191Z,1006.09
2018-09-18T12:31:16.187Z,1006.11
2018-09-18T12:32:15.840Z,1006.01
2018-09-18T12:33:15.864Z,1006.01
2018-09-18T12:34:15.789Z,1005.99
2018-09-18T12:35:15.882Z,1006.09
2018-09-18T12:36:15.790Z,1006.01
2018-09-18T12:37:16.147Z,1006.05
2018-09-18T12:38:15.864Z,1005.96
2018-09-18T12:39:15.947Z,1005.95
2018-09-18T12:40:15.959Z,1005.94
2018-09-18T12:41:15.798Z,1005.91
2018-09-18T12:42:16.006Z,1005.95
2018-09-18T12:43:16.147Z,1005.85
2018-09-18T12:44:15.815Z,1005.86
2018-09-18T12:45:15.850Z,1005.75
2018-09-18T12:46:16.127Z,1005.96
2018-09-18T12:47:15.912Z,1005.91
2018-09-18T12:48:15.795Z,1005.87
2018-09-18T12:49:16.205Z,1005.93
2018-09-18T12:50:15.964Z,1005.86
2018-09-18T12:51:15.956Z,1005.87
2018-09-18T12:52:15.870Z,1005.82
2018-09-18T12:53:15.886Z,1005.83
2018-09-18T12:54:15.943Z,1005.88
2018-09-18T12:55:16.159Z,1005.85
2018-09-18T12:57:16.032Z,1005.81
2018-09-18T12:58:16.241Z,1005.72
2018-09-18T12:59:15.815Z,1005.77
2018-09-18T13:00:15.904Z,1005.79
2018-09-18T13:01:16.257Z,1005.77
2018-09-18T13:02:15.861Z,1005.83
2018-09-18T13:03:15.883Z,1005.86
2018-09-18T13:04:15.818Z,1005.91
2018-09-18T13:05:15.801Z,1005.77
2018-09-18T13:06:15.966Z,1005.87
2018-09-18T13:07:16.224Z,1005.78
2018-09-18T13:08:15.982Z,1005.82
2018-09-18T13:09:15.872Z,1005.76
2018-09-18T13:10:15.819Z,1005.89
2018-09-18T13:11:15.857Z,1005.83
2018-09-18T13:12:15.849Z,1005.93
2018-09-18T13:13:16.443Z,1005.88
2018-09-18T13:14:15.985Z,1005.87
2018-09-18T13:15:16.186Z,1005.56
2018-09-18T13:16:15.918Z,1005.64
2018-09-18T13:17:15.895Z,1005.63
2018-09-18T13:18:15.886Z,1005.87
2018-09-18T13:19:16.280Z,1005.85
2018-09-18T13:21:16.189Z,1005.68
2018-09-18T13:22:15.852Z,1006.23
2018-09-18T13:23:15.878Z,1006.26
2018-09-18T13:24:15.793Z,1005.31
2018-09-18T13:25:16.166Z,1005.21
2018-09-18T13:26:15.808Z,1005.20
2018-09-18T13:27:15.891Z,1005.17